Time;durP1;ratioP1;P1;durP2;ratioP2;P2;SDS_P1;SDS_P2;PMS_P1;PMS_P2;Temp;Humidity;BMP_temperature;BMP_pressure;BME280_temperature;BME280_humidity;BME280_pressure;Samples;Min_cycle;Max_cycle;Signal;HPM_P1;HPM_P2
2021/04/15 04:15:07;;;;;;;5.32;1.30;;;1.00;82.80;;;;;;5031991;28;20497;-65
2021/04/15 04:17:50;;;;;;;14.95;1.67;;;1.40;81.40;;;;;;5032259;28;20397;-65
2021/04/15 04:20:16;;;;;;;14.43;1.67;;;1.70;79.40;;;;;;5032421;28;20026;-66
2021/04/15 04:22:51;;;;;;;6.22;1.42;;;2.00;77.70;;;;;;5032330;28;20063;-66
2021/04/15 04:25:32;;;;;;;8.50;1.60;;;2.30;76.60;;;;;;5032299;28;20481;-65
2021/04/15 04:28:04;;;;;;;5.25;1.52;;;2.60;75.80;;;;;;5032290;28;20029;-67
2021/04/15 04:30:33;;;;;;;4.63;1.30;;;3.00;74.30;;;;;;5032237;28;20022;-66
2021/04/15 04:33:04;;;;;;;10.73;1.10;;;3.20;72.80;;;;;;5032317;28;20028;-65
2021/04/15 04:35:32;;;;;;;9.63;1.40;;;3.30;72.20;;;;;;5032152;28;20378;-65
2021/04/15 04:38:03;;;;;;;5.88;1.00;;;3.50;71.90;;;;;;5032116;28;20029;-65
2021/04/15 04:40:34;;;;;;;8.90;1.20;;;4.60;99.90;;;;;;5035926;28;20021;-68
2021/04/15 04:43:10;;;;;;;;;;;6.90;87.70;;;;;;5052321;28;20104;-66
2021/04/15 04:45:36;;;;;;;7.40;1.23;;;6.70;63.80;;;;;;5051832;28;19905;-65
2021/04/15 04:48:18;;;;;;;6.03;1.10;;;6.00;64.50;;;;;;5051233;28;20017;-65
2021/04/15 04:50:54;;;;;;;23.73;1.83;;;5.70;65.90;;;;;;5051826;28;20032;-66
2021/04/15 04:53:27;;;;;;;10.90;1.33;;;5.60;65.50;;;;;;5051756;28;20028;-65
2021/04/15 04:56:08;;;;;;;15.85;1.50;;;5.60;65.50;;;;;;5051185;28;20492;-65
2021/04/15 04:58:35;;;;;;;10.05;1.35;;;5.60;64.70;;;;;;5050053;28;20021;-67
2021/04/15 05:01:02;;;;;;;8.95;1.60;;;5.80;64.40;;;;;;5051460;28;20037;-67
2021/04/15 05:03:31;;;;;;;15.48;1.45;;;6.00;63.90;;;;;;5050879;28;20021;-67
2021/04/15 05:06:06;;;;;;;6.25;1.10;;;6.10;63.60;;;;;;5051401;28;20100;-67
2021/04/15 05:08:51;;;;;;;10.20;1.95;;;6.40;63.20;;;;;;5048327;28;20036;-67
2021/04/15 05:11:17;;;;;;;21.33;1.70;;;6.70;62.20;;;;;;5051102;28;20029;-67
2021/04/15 05:13:43;;;;;;;12.95;1.58;;;6.90;61.50;;;;;;5051618;28;20377;-67
2021/04/15 05:16:09;;;;;;;14.95;1.67;;;7.00;60.80;;;;;;5054248;28;20151;-67
2021/04/15 05:18:36;;;;;;;10.93;1.40;;;7.20;60.40;;;;;;5059626;28;20449;-67
2021/04/15 05:21:18;;;;;;;7.63;1.63;;;7.20;59.70;;;;;;5066338;28;20025;-67
2021/04/15 05:24:13;;;;;;;11.57;1.38;;;7.30;59.80;;;;;;5065521;28;20025;-66
2021/04/15 05:26:41;;;;;;;16.38;1.92;;;7.30;59.30;;;;;;5060090;28;20110;-66
2021/04/15 05:29:14;;;;;;;8.80;1.27;;;7.40;59.10;;;;;;5061929;28;20025;-68
2021/04/15 05:31:43;;;;;;;7.63;1.30;;;7.40;59.30;;;;;;5054197;28;20025;-68
2021/04/15 05:34:46;;;;;;;10.07;1.67;;;7.40;59.00;;;;;;5055346;28;20029;-72
2021/04/15 05:37:19;;;;;;;13.38;1.65;;;7.50;58.80;;;;;;5055435;28;20029;-68
2021/04/15 05:39:45;;;;;;;4.72;1.38;;;7.60;59.50;;;;;;5055376;28;20112;-68
2021/04/15 05:42:34;;;;;;;7.25;1.23;;;7.60;58.70;;;;;;5055298;28;20472;-68
2021/04/15 05:45:18;;;;;;;13.10;1.35;;;7.70;58.60;;;;;;5055009;28;20463;-68
2021/04/15 05:47:47;;;;;;;13.15;1.38;;;7.80;58.60;;;;;;5055169;28;20025;-68
2021/04/15 05:50:26;;;;;;;8.63;1.20;;;7.90;58.20;;;;;;5055064;28;20144;-68
2021/04/15 05:53:15;;;;;;;5.72;1.10;;;7.90;57.90;;;;;;5055040;28;20117;-68
2021/04/15 05:55:48;;;;;;;9.20;1.50;;;7.90;57.90;;;;;;5055159;28;20037;-68
2021/04/15 05:58:31;;;;;;;10.07;1.25;;;8.00;58.60;;;;;;5054986;28;20116;-68
2021/04/15 06:01:06;;;;;;;5.40;1.00;;;8.20;57.70;;;;;;5055292;28;20031;-68
2021/04/15 06:03:44;;;;;;;6.03;1.08;;;8.30;57.50;;;;;;5054701;28;20028;-67
2021/04/15 06:06:17;;;;;;;8.63;1.33;;;8.50;57.30;;;;;;5054980;28;20132;-68
2021/04/15 06:08:47;;;;;;;12.68;1.60;;;8.80;56.80;;;;;;5054735;28;20353;-69
2021/04/15 06:11:50;;;;;;;12.65;1.20;;;8.90;56.40;;;;;;5054758;28;20498;-68
2021/04/15 06:14:53;;;;;;;21.73;2.13;;;9.00;56.10;;;;;;5054196;28;20067;-69
2021/04/15 06:17:39;;;;;;;10.10;1.27;;;9.20;56.20;;;;;;5053423;28;20087;-67
2021/04/15 06:20:23;;;;;;;6.32;1.20;;;9.40;58.60;;;;;;5054647;28;20031;-65
2021/04/15 06:22:53;;;;;;;4.85;1.63;;;9.70;59.90;;;;;;5054507;28;20029;-66
2021/04/15 06:25:38;;;;;;;13.32;1.25;;;10.90;61.10;;;;;;5054495;28;20029;-65
2021/04/15 06:28:10;;;;;;;13.00;1.48;;;11.20;59.90;;;;;;5054466;28;20029;-69
2021/04/15 06:30:47;;;;;;;9.88;1.08;;;11.20;54.90;;;;;;5053685;28;20017;-69
2021/04/15 06:33:18;;;;;;;6.85;1.30;;;10.90;53.80;;;;;;5054799;28;20029;-69
2021/04/15 06:35:45;;;;;;;4.13;1.08;;;10.50;53.90;;;;;;5054323;28;20044;-69
2021/04/15 06:38:36;;;;;;;10.40;1.27;;;10.20;54.20;;;;;;5054426;28;20033;-70
2021/04/15 06:41:11;;;;;;;38.72;2.45;;;10.00;54.40;;;;;;5054497;28;20026;-78
2021/04/15 06:43:58;;;;;;;7.47;1.00;;;9.90;55.90;;;;;;5048206;28;20025;-74
2021/04/15 06:46:49;;;;;;;6.15;1.20;;;9.80;54.80;;;;;;5054109;28;20021;-73
2021/04/15 06:49:40;;;;;;;8.48;1.75;;;9.60;55.80;;;;;;5053879;28;20055;-73
2021/04/15 06:52:34;;;;;;;5.82;1.20;;;9.80;55.80;;;;;;5053794;28;20029;-72
2021/04/15 06:55:39;;;;;;;6.30;1.35;;;9.70;54.90;;;;;;5053501;28;20037;-73
2021/04/15 06:58:16;;;;;;;3.65;1.02;;;9.60;55.20;;;;;;5051100;28;20028;-68
2021/04/15 07:01:15;;;;;;;14.90;1.48;;;9.50;55.60;;;;;;5053428;28;20083;-68
2021/04/15 07:03:59;;;;;;;18.73;1.67;;;9.90;60.40;;;;;;5053125;28;20021;-67
2021/04/15 07:06:43;;;;;;;9.88;1.52;;;10.40;59.70;;;;;;5053392;28;20412;-68
2021/04/15 07:09:45;;;;;;;6.35;1.40;;;10.80;58.50;;;;;;5053315;28;20059;-68
2021/04/15 07:12:29;;;;;;;6.20;1.30;;;10.70;56.20;;;;;;5053183;28;20496;-70
2021/04/15 07:15:28;;;;;;;11.55;1.40;;;10.40;54.80;;;;;;5032918;28;20049;-72
2021/04/15 07:18:12;;;;;;;6.43;1.52;;;10.30;55.50;;;;;;5033209;28;20687;-70
2021/04/15 07:21:05;;;;;;;8.60;1.30;;;10.10;55.10;;;;;;5033189;28;20030;-71
2021/04/15 07:23:56;;;;;;;5.25;1.20;;;10.00;55.50;;;;;;5032946;28;20477;-72
2021/04/15 07:26:33;;;;;;;8.02;1.40;;;9.90;55.30;;;;;;5033598;28;20061;-72
2021/04/15 07:29:09;;;;;;;5.88;1.23;;;9.90;55.80;;;;;;5045829;28;20053;-70
2021/04/15 07:31:50;;;;;;;6.13;1.58;;;9.70;55.80;;;;;;5050785;28;20053;-71
2021/04/15 07:34:46;;;;;;;11.63;1.90;;;9.40;56.20;;;;;;5032860;28;20026;-70
2021/04/15 07:37:38;;;;;;;11.77;1.55;;;9.50;61.40;;;;;;5034365;28;20398;-70
2021/04/15 07:40:09;;;;;;;8.50;1.75;;;9.50;56.70;;;;;;5032671;28;20155;-75
2021/04/15 07:43:13;;;;;;;8.20;1.40;;;9.30;57.90;;;;;;5032298;28;20036;-73
2021/04/15 07:45:51;;;;;;;8.80;1.50;;;9.10;57.10;;;;;;5031620;28;20371;-70
2021/04/15 07:48:40;;;;;;;5.65;1.38;;;8.90;57.70;;;;;;5032831;28;20022;-70
2021/04/15 07:51:25;;;;;;;6.65;1.40;;;8.80;58.00;;;;;;5032929;28;20029;-70
2021/04/15 07:54:24;;;;;;;6.53;1.35;;;8.80;58.20;;;;;;5032420;28;20443;-73
2021/04/15 07:57:04;;;;;;;12.32;1.65;;;8.70;58.40;;;;;;5035818;28;20120;-74
2021/04/15 07:59:33;;;;;;;7.63;1.50;;;8.80;63.70;;;;;;5052498;28;20155;-73
2021/04/15 08:02:17;;;;;;;4.50;1.50;;;9.00;58.80;;;;;;5052573;28;20487;-73
2021/04/15 08:04:42;;;;;;;8.25;1.52;;;8.80;58.10;;;;;;5052126;28;20502;-73
2021/04/15 08:07:45;;;;;;;6.72;1.58;;;8.60;58.10;;;;;;5052497;28;20025;-73
2021/04/15 08:10:48;;;;;;;8.25;2.13;;;8.50;58.30;;;;;;5052516;28;20079;-73
2021/04/15 08:13:25;;;;;;;8.95;1.50;;;8.40;58.60;;;;;;5052312;28;20112;-73
2021/04/15 08:16:03;;;;;;;4.20;1.55;;;8.40;59.00;;;;;;5052360;28;20450;-73
2021/04/15 08:18:45;;;;;;;11.23;1.73;;;8.40;59.20;;;;;;5052256;28;20028;-73
2021/04/15 08:21:23;;;;;;;7.68;1.30;;;8.40;59.20;;;;;;5052180;28;20491;-73
2021/04/15 08:24:24;;;;;;;12.32;1.55;;;8.40;59.40;;;;;;5051909;28;20028;-73
2021/04/15 08:27:13;;;;;;;8.40;1.40;;;8.40;59.40;;;;;;5051921;28;20075;-73
2021/04/15 08:29:39;;;;;;;4.87;1.53;;;8.50;59.50;;;;;;5051879;28;20021;-73
2021/04/15 08:32:29;;;;;;;5.93;1.42;;;8.50;60.30;;;;;;5051882;28;20025;-73
2021/04/15 08:35:32;;;;;;;3.70;1.27;;;8.60;59.40;;;;;;5051619;28;20060;-73
2021/04/15 08:38:24;;;;;;;10.13;1.88;;;8.60;59.40;;;;;;5051845;28;20033;-73
2021/04/15 08:41:10;;;;;;;13.95;2.10;;;8.60;59.50;;;;;;5052054;28;20029;-73
2021/04/15 08:43:51;;;;;;;14.05;1.50;;;8.60;59.90;;;;;;5051657;28;20082;-73
2021/04/15 08:46:36;;;;;;;5.22;1.70;;;8.70;60.00;;;;;;5051821;28;20025;-73
2021/04/15 08:49:33;;;;;;;10.98;1.58;;;8.80;59.60;;;;;;5051984;28;20182;-73
2021/04/15 08:52:15;;;;;;;3.10;1.33;;;8.80;59.70;;;;;;5049145;28;20028;-72
2021/04/15 08:55:07;;;;;;;7.60;1.48;;;9.20;62.30;;;;;;5049212;28;20047;-73
2021/04/15 08:58:02;;;;;;;7.30;1.42;;;9.20;59.60;;;;;;5050928;28;20112;-73
2021/04/15 09:00:51;;;;;;;12.18;2.05;;;9.10;59.40;;;;;;5051423;28;20032;-74
2021/04/15 09:03:37;;;;;;;7.68;1.73;;;9.10;59.30;;;;;;5053225;28;20433;-74
2021/04/15 09:06:22;;;;;;;10.32;1.70;;;9.00;59.50;;;;;;5051694;28;20104;-72
2021/04/15 09:09:11;;;;;;;5.43;1.50;;;9.10;59.70;;;;;;5050857;28;20128;-70
2021/04/15 09:11:58;;;;;;;4.38;1.50;;;9.10;59.60;;;;;;5051264;28;20024;-71
2021/04/15 09:14:42;;;;;;;4.85;1.10;;;9.10;59.60;;;;;;5050700;28;20041;-71
2021/04/15 09:17:19;;;;;;;8.02;1.50;;;9.10;59.60;;;;;;5051100;28;20021;-71
2021/04/15 09:19:45;;;;;;;8.13;1.75;;;9.10;59.50;;;;;;5051179;28;20025;-71
2021/04/15 09:23:12;;;;;;;2.45;1.23;;;9.20;59.60;;;;;;5050728;28;20047;-71
2021/04/15 09:25:41;;;;;;;18.23;1.17;;;9.20;59.50;;;;;;4980979;28;20039;-71
2021/04/15 09:28:29;;;;;;;7.38;1.73;;;9.40;60.00;;;;;;4970177;28;20510;-72
2021/04/15 09:31:02;;;;;;;5.25;1.45;;;9.40;59.50;;;;;;5009207;28;20042;-72
2021/04/15 09:33:47;;;;;;;4.95;1.50;;;9.30;59.40;;;;;;5031140;28;20506;-72
2021/04/15 09:36:33;;;;;;;6.00;1.00;;;9.30;59.30;;;;;;5031326;28;20037;-71
2021/04/15 09:39:02;;;;;;;4.03;1.27;;;9.50;64.60;;;;;;5031299;28;20021;-73
2021/04/15 09:41:46;;;;;;;3.85;1.15;;;9.60;59.60;;;;;;5031329;28;20116;-74
2021/04/15 09:44:36;;;;;;;8.65;1.40;;;9.60;59.10;;;;;;5030969;28;20381;-71
2021/04/15 09:47:31;;;;;;;9.45;1.60;;;9.50;59.10;;;;;;5030986;28;20428;-73
2021/04/15 09:50:12;;;;;;;9.35;1.30;;;9.50;59.30;;;;;;5048893;28;20029;-73
2021/04/15 09:52:46;;;;;;;4.30;1.10;;;9.50;59.50;;;;;;5049128;28;20182;-69
2021/04/15 09:55:49;;;;;;;6.00;1.08;;;9.50;59.60;;;;;;5047813;28;20044;-74
2021/04/15 09:58:43;;;;;;;9.77;1.45;;;9.60;59.30;;;;;;5048889;28;20046;-74
2021/04/15 10:01:16;;;;;;;12.50;1.60;;;9.50;59.30;;;;;;5051017;28;20572;-74
2021/04/15 10:04:03;;;;;;;7.50;1.23;;;9.60;60.40;;;;;;5050967;28;20032;-74
2021/04/15 10:06:42;;;;;;;7.38;1.45;;;9.70;59.60;;;;;;5054245;28;20396;-72
2021/04/15 10:09:35;;;;;;;17.08;1.92;;;9.80;59.50;;;;;;5054640;28;20029;-72
2021/04/15 10:12:39;;;;;;;9.50;1.95;;;9.80;59.00;;;;;;5054600;28;20396;-72
2021/04/15 10:15:23;;;;;;;12.13;1.45;;;9.70;58.90;;;;;;5051542;28;20048;-72
2021/04/15 10:18:04;;;;;;;8.40;1.40;;;9.70;59.20;;;;;;5054163;28;20029;-72
2021/04/15 10:20:33;;;;;;;7.57;1.08;;;9.80;59.40;;;;;;5054742;28;20029;-72
2021/04/15 10:23:20;;;;;;;3.80;1.10;;;9.80;59.30;;;;;;5054192;28;20023;-73
2021/04/15 10:26:07;;;;;;;4.63;1.25;;;9.80;59.20;;;;;;5054182;28;20025;-72
2021/04/15 10:28:52;;;;;;;7.18;1.40;;;9.90;59.00;;;;;;5054128;28;20086;-73
2021/04/15 10:31:49;;;;;;;5.10;1.10;;;9.90;58.60;;;;;;5054183;28;20472;-72
2021/04/15 10:34:38;;;;;;;10.55;1.95;;;9.80;58.90;;;;;;5053652;28;20021;-72
2021/04/15 10:37:39;;;;;;;18.15;2.17;;;9.90;59.20;;;;;;5054002;28;20025;-72
2021/04/15 10:40:52;;;;;;;6.43;1.17;;;9.90;59.50;;;;;;5054276;28;20025;-73
2021/04/15 10:43:55;;;;;;;5.20;0.98;;;9.90;58.80;;;;;;5051312;28;20492;-72
2021/04/15 10:46:34;;;;;;;4.35;1.15;;;10.00;59.50;;;;;;5053985;28;20036;-72
2021/04/15 10:49:09;;;;;;;4.43;1.45;;;10.00;59.20;;;;;;5055531;28;20111;-71
2021/04/15 10:51:46;;;;;;;3.65;1.02;;;9.90;58.80;;;;;;5053215;28;20021;-71
2021/04/15 10:54:32;;;;;;;7.20;1.20;;;10.00;59.00;;;;;;5051529;28;20053;-73
2021/04/15 10:57:02;;;;;;;5.43;0.88;;;10.00;59.50;;;;;;5050871;28;20075;-74
2021/04/15 10:59:37;;;;;;;4.55;1.10;;;10.00;59.20;;;;;;5051128;28;20040;-73
2021/04/15 11:02:42;;;;;;;8.13;1.20;;;10.10;59.00;;;;;;5053071;28;20090;-72
2021/04/15 11:05:37;;;;;;;8.80;1.40;;;10.00;58.90;;;;;;5036187;28;20045;-72
2021/04/15 11:08:10;;;;;;;9.23;2.10;;;10.00;59.00;;;;;;5038467;28;20028;-73
2021/04/15 11:10:37;;;;;;;4.35;1.13;;;10.10;59.10;;;;;;5047001;28;20033;-71
2021/04/15 11:13:20;;;;;;;6.10;1.15;;;10.10;59.10;;;;;;5052604;28;20021;-73
2021/04/15 11:15:52;;;;;;;4.43;1.25;;;10.10;58.70;;;;;;5052421;28;20102;-73
2021/04/15 11:18:30;;;;;;;1.90;0.80;;;10.20;58.30;;;;;;5053080;28;20029;-73
2021/04/15 11:21:21;;;;;;;5.93;1.05;;;10.20;58.40;;;;;;5053116;28;20021;-73
2021/04/15 11:23:48;;;;;;;;;;;10.20;58.10;;;;;;5053127;28;20503;-73
2021/04/15 11:26:41;;;;;;;3.65;0.93;;;10.20;57.80;;;;;;5052814;28;20405;-72
2021/04/15 11:29:35;;;;;;;3.53;1.20;;;10.20;58.00;;;;;;5052819;28;20021;-71
2021/04/15 11:32:01;;;;;;;3.65;1.27;;;10.20;58.00;;;;;;5053026;28;20111;-71
2021/04/15 11:34:27;;;;;;;8.90;1.23;;;10.20;58.10;;;;;;5052656;28;20540;-71
2021/04/15 11:37:08;;;;;;;2.47;0.98;;;10.20;57.80;;;;;;5052785;28;20056;-70
2021/04/15 11:39:36;;;;;;;4.60;1.10;;;10.40;60.70;;;;;;5052111;28;20025;-71
2021/04/15 11:42:11;;;;;;;4.53;1.00;;;11.40;65.90;;;;;;5052060;28;20032;-69
2021/04/15 11:44:51;;;;;;;3.90;1.35;;;11.50;58.20;;;;;;5052472;28;20043;-69
2021/04/15 11:47:24;;;;;;;7.13;1.30;;;11.30;57.00;;;;;;5051375;28;20024;-68
2021/04/15 11:49:52;;;;;;;5.20;0.88;;;11.10;56.90;;;;;;5052805;28;20057;-69
2021/04/15 11:52:32;;;;;;;6.85;1.10;;;10.90;58.00;;;;;;5051988;28;20072;-69
2021/04/15 11:54:58;;;;;;;2.95;0.90;;;11.10;58.00;;;;;;5052644;28;20029;-69
2021/04/15 11:57:31;;;;;;;4.32;1.20;;;10.90;56.60;;;;;;5052786;28;20086;-69
2021/04/15 11:59:57;;;;;;;3.42;1.27;;;10.80;57.20;;;;;;5052637;28;20013;-69
2021/04/15 12:02:32;;;;;;;1.95;0.85;;;10.70;56.60;;;;;;5052981;28;20025;-69
2021/04/15 12:05:16;;;;;;;5.18;1.27;;;10.60;56.20;;;;;;5052519;28;20017;-69
2021/04/15 12:08:21;;;;;;;4.68;1.25;;;10.60;56.90;;;;;;5052566;28;20059;-69
2021/04/15 12:11:02;;;;;;;1.95;0.90;;;10.50;56.80;;;;;;5052531;28;20480;-70
2021/04/15 12:13:29;;;;;;;6.53;1.33;;;10.50;56.90;;;;;;5052634;28;20468;-71
2021/04/15 12:16:05;;;;;;;3.47;1.05;;;10.60;60.60;;;;;;5050870;28;20052;-70
2021/04/15 12:18:39;;;;;;;3.53;1.08;;;12.40;67.20;;;;;;5052569;28;20107;-69
2021/04/15 12:21:29;;;;;;;5.63;1.13;;;13.20;57.60;;;;;;5052515;28;20021;-69
2021/04/15 12:24:17;;;;;;;;;;;12.60;54.40;;;;;;5052291;28;20450;-70
2021/04/15 12:26:58;;;;;;;8.68;1.27;;;12.00;53.80;;;;;;5051536;28;19940;-69
2021/04/15 12:29:30;;;;;;;4.90;1.05;;;11.60;55.10;;;;;;5052271;28;20025;-70
2021/04/15 12:32:15;;;;;;;5.45;1.55;;;11.30;55.60;;;;;;5052193;28;20025;-69
2021/04/15 12:35:18;;;;;;;3.58;0.75;;;11.20;56.10;;;;;;5051924;28;20066;-71
2021/04/15 12:37:49;;;;;;;3.60;1.08;;;11.00;55.90;;;;;;5051125;28;20049;-69
2021/04/15 12:40:28;;;;;;;6.07;1.10;;;10.90;56.30;;;;;;5051923;28;20384;-69
2021/04/15 12:43:00;;;;;;;6.32;1.40;;;10.90;56.30;;;;;;5052197;28;20029;-69
2021/04/15 12:45:39;;;;;;;3.53;1.10;;;10.80;55.80;;;;;;5052008;28;20477;-69
2021/04/15 12:48:08;;;;;;;6.25;0.80;;;10.70;55.90;;;;;;5052261;28;20089;-69
2021/04/15 12:50:35;;;;;;;5.95;1.00;;;10.70;56.20;;;;;;5051869;28;20464;-69
2021/04/15 12:53:05;;;;;;;6.57;0.95;;;10.70;56.20;;;;;;5052016;28;20029;-69
2021/04/15 12:55:31;;;;;;;3.40;1.07;;;10.70;56.40;;;;;;5052162;28;20391;-69
2021/04/15 12:57:57;;;;;;;5.75;0.98;;;10.70;56.30;;;;;;5052030;28;20029;-69
2021/04/15 13:00:33;;;;;;;2.55;1.35;;;10.70;56.50;;;;;;5051843;28;20025;-71
2021/04/15 13:03:18;;;;;;;9.20;1.17;;;10.70;56.10;;;;;;5051723;28;20029;-70
2021/04/15 13:05:55;;;;;;;8.63;1.58;;;10.70;56.10;;;;;;5051811;28;20021;-70
2021/04/15 13:08:35;;;;;;;3.70;0.77;;;10.70;56.20;;;;;;5052091;28;20079;-69
2021/04/15 13:11:33;;;;;;;7.20;1.30;;;10.70;55.80;;;;;;5051646;28;20033;-69
2021/04/15 13:14:01;;;;;;;2.38;1.08;;;10.70;56.00;;;;;;5051586;28;20029;-69
2021/04/15 13:16:33;;;;;;;7.80;1.38;;;10.70;56.10;;;;;;5051911;28;20117;-69
2021/04/15 13:19:04;;;;;;;6.75;1.30;;;10.60;56.20;;;;;;5051718;28;20035;-69
2021/04/15 13:21:34;;;;;;;4.40;1.15;;;10.60;56.40;;;;;;5051955;28;20032;-69
2021/04/15 13:24:21;;;;;;;4.45;1.35;;;10.60;55.70;;;;;;5051507;28;20029;-69
2021/04/15 13:26:47;;;;;;;10.20;1.27;;;10.60;55.70;;;;;;5051430;28;20044;-69
2021/04/15 13:29:17;;;;;;;2.67;1.08;;;10.60;56.00;;;;;;5051791;28;20676;-68
2021/04/15 13:31:57;;;;;;;3.47;1.05;;;10.60;56.00;;;;;;5051373;28;20048;-68
2021/04/15 13:34:51;;;;;;;3.33;1.10;;;10.70;55.90;;;;;;5051501;28;20025;-68
2021/04/15 13:37:44;;;;;;;3.35;1.00;;;10.70;56.20;;;;;;5051411;28;20112;-68
2021/04/15 13:40:18;;;;;;;2.63;1.00;;;10.70;55.90;;;;;;5054157;28;20025;-68
2021/04/15 13:42:44;;;;;;;2.17;1.00;;;10.70;55.70;;;;;;5055218;28;20626;-69
2021/04/15 13:45:37;;;;;;;1.55;1.10;;;10.70;56.10;;;;;;5055288;28;20040;-69
2021/04/15 13:48:03;;;;;;;3.80;1.00;;;10.70;55.90;;;;;;5055515;28;20030;-69
2021/04/15 13:51:11;;;;;;;3.58;0.90;;;10.70;56.10;;;;;;5055274;28;20057;-69
2021/04/15 13:53:45;;;;;;;7.40;1.30;;;10.70;56.20;;;;;;5054378;28;20028;-69
2021/04/15 13:56:11;;;;;;;2.97;0.90;;;10.80;56.20;;;;;;5035162;28;20033;-68
2021/04/15 13:58:39;;;;;;;8.38;0.90;;;10.80;56.20;;;;;;5051569;28;20052;-69
2021/04/15 14:01:32;;;;;;;9.15;1.98;;;10.80;56.40;;;;;;5060564;28;20032;-69
2021/04/15 14:03:58;;;;;;;2.58;1.13;;;10.90;56.60;;;;;;5067072;28;20021;-70
2021/04/15 14:06:28;;;;;;;2.95;1.02;;;10.80;56.40;;;;;;5060005;28;20025;-69
2021/04/15 14:09:19;;;;;;;4.15;1.00;;;10.90;56.30;;;;;;5055067;28;20033;-69
2021/04/15 14:11:54;;;;;;;30.33;1.70;;;10.80;56.30;;;;;;5054434;28;20028;-69
2021/04/15 14:14:43;;;;;;;3.15;0.82;;;10.90;57.70;;;;;;5054406;28;20127;-68
2021/04/15 14:17:18;;;;;;;2.77;0.90;;;11.80;65.90;;;;;;5054144;28;20139;-69
2021/04/15 14:19:45;;;;;;;6.43;1.15;;;12.50;56.20;;;;;;5054444;28;20060;-69
2021/04/15 14:22:19;;;;;;;5.72;1.13;;;12.10;54.40;;;;;;5054937;28;20039;-69
2021/04/15 14:24:52;;;;;;;3.45;0.70;;;11.70;54.40;;;;;;5054368;28;20416;-69
2021/04/15 14:27:22;;;;;;;2.30;1.08;;;11.50;54.90;;;;;;5054334;28;20107;-69
2021/04/15 14:29:49;;;;;;;6.45;1.13;;;11.30;54.90;;;;;;5060784;28;20029;-69
2021/04/15 14:32:30;;;;;;;2.60;0.90;;;11.20;55.30;;;;;;5063724;28;20079;-69
2021/04/15 14:35:12;;;;;;;6.95;1.13;;;11.20;55.30;;;;;;5060938;28;20036;-70
2021/04/15 14:37:38;;;;;;;4.07;1.00;;;11.10;55.20;;;;;;5066767;28;20016;-69
2021/04/15 14:40:27;;;;;;;5.22;0.90;;;11.10;55.60;;;;;;5059615;28;20086;-69
2021/04/15 14:42:53;;;;;;;2.65;0.85;;;11.00;55.60;;;;;;5062889;28;20023;-69
2021/04/15 14:45:29;;;;;;;3.83;1.15;;;11.10;55.60;;;;;;5062510;28;20033;-69
2021/04/15 14:47:58;;;;;;;5.47;1.30;;;11.10;55.50;;;;;;5063172;28;20020;-69
2021/04/15 14:50:37;;;;;;;2.60;0.80;;;11.00;55.30;;;;;;5059331;28;20021;-69
2021/04/15 14:53:15;;;;;;;6.28;1.20;;;11.00;55.50;;;;;;5062667;28;20037;-69
2021/04/15 14:55:43;;;;;;;8.02;1.13;;;11.00;55.60;;;;;;5062637;28;20040;-69
2021/04/15 14:58:29;;;;;;;3.92;1.00;;;11.00;55.60;;;;;;5063667;28;20048;-69
2021/04/15 15:00:58;;;;;;;4.85;1.13;;;10.90;55.20;;;;;;5062016;28;20017;-70
2021/04/15 15:03:33;;;;;;;10.38;1.15;;;11.00;56.80;;;;;;5059781;28;20366;-70
2021/04/15 15:06:00;;;;;;;2.53;1.00;;;11.10;56.30;;;;;;5060399;28;20052;-71
2021/04/15 15:08:29;;;;;;;10.20;1.60;;;11.10;55.60;;;;;;5063961;28;20112;-70
2021/04/15 15:10:58;;;;;;;2.80;1.15;;;11.10;55.40;;;;;;5061432;28;20075;-72
2021/04/15 15:13:28;;;;;;;3.55;1.10;;;11.00;55.30;;;;;;5053685;28;20033;-68
2021/04/15 15:15:53;;;;;;;1.48;0.95;;;11.00;55.30;;;;;;5052879;28;20045;-70
2021/04/15 15:18:22;;;;;;;6.28;1.00;;;11.10;55.80;;;;;;5053854;28;20025;-70
2021/04/15 15:20:54;;;;;;;2.58;0.93;;;11.00;55.60;;;;;;5053132;28;20033;-71
2021/04/15 15:23:33;;;;;;;4.18;1.17;;;11.00;55.40;;;;;;5053565;28;20028;-71
2021/04/15 15:26:43;;;;;;;1.80;0.90;;;11.00;55.50;;;;;;5052507;28;20469;-71
2021/04/15 15:29:34;;;;;;;1.23;0.85;;;10.90;55.60;;;;;;5033882;28;20040;-71
2021/04/15 15:32:27;;;;;;;4.95;1.50;;;10.90;55.90;;;;;;5032286;28;20025;-71
2021/04/15 15:35:11;;;;;;;3.55;1.42;;;10.90;56.00;;;;;;5032896;28;20480;-70
2021/04/15 15:37:40;;;;;;;4.25;1.25;;;10.90;56.20;;;;;;5046589;28;20025;-68
2021/04/15 15:40:39;;;;;;;3.85;1.27;;;10.90;55.90;;;;;;5033283;28;20076;-68
2021/04/15 15:43:12;;;;;;;6.75;0.98;;;10.80;56.20;;;;;;5032986;28;20034;-67
2021/04/15 15:45:51;;;;;;;3.50;1.20;;;11.00;59.70;;;;;;5033226;28;20017;-68
2021/04/15 15:48:51;;;;;;;2.08;1.00;;;11.30;57.90;;;;;;5033350;28;20385;-68
2021/04/15 15:51:44;;;;;;;4.45;1.20;;;11.20;56.60;;;;;;5038553;28;20225;-68
2021/04/15 15:54:46;;;;;;;9.27;1.45;;;11.10;55.90;;;;;;5032938;28;20559;-68
2021/04/15 15:57:21;;;;;;;4.63;1.60;;;11.00;55.80;;;;;;5033094;28;20046;-68
2021/04/15 15:59:47;;;;;;;2.65;0.90;;;11.00;56.00;;;;;;5032815;28;20046;-68
2021/04/15 16:02:16;;;;;;;4.20;0.95;;;10.90;56.00;;;;;;5031945;28;20035;-68
2021/04/15 16:04:54;;;;;;;8.23;4.32;;;10.90;56.00;;;;;;5036351;28;20075;-69
2021/04/15 16:07:40;;;;;;;44.28;20.55;;;10.90;56.00;;;;;;5052828;28;20021;-68
2021/04/15 16:10:11;;;;;;;10.30;4.03;;;10.90;56.20;;;;;;5051693;28;20025;-68
2021/04/15 16:12:55;;;;;;;1.58;1.00;;;10.80;56.20;;;;;;5052423;28;20048;-68
2021/04/15 16:15:41;;;;;;;7.53;1.00;;;10.80;55.90;;;;;;5052170;28;20040;-68
2021/04/15 16:18:21;;;;;;;2.45;1.15;;;10.80;56.10;;;;;;5052285;28;20035;-72
2021/04/15 16:21:12;;;;;;;6.00;1.27;;;10.70;56.90;;;;;;5051980;28;20016;-68
2021/04/15 16:23:40;;;;;;;5.63;1.40;;;10.80;56.60;;;;;;5052625;28;20491;-70
2021/04/15 16:26:08;;;;;;;2.95;1.15;;;10.80;56.40;;;;;;5052059;28;20070;-68
2021/04/15 16:28:34;;;;;;;7.13;0.85;;;10.80;56.40;;;;;;5052485;28;20442;-68
2021/04/15 16:31:00;;;;;;;4.63;1.45;;;10.70;56.90;;;;;;5051754;28;20507;-68
2021/04/15 16:33:26;;;;;;;12.43;1.08;;;10.70;56.30;;;;;;5051841;28;20052;-68
2021/04/15 16:35:52;;;;;;;1.52;0.85;;;10.60;56.50;;;;;;5051641;28;20069;-68
2021/04/15 16:38:43;;;;;;;2.15;1.02;;;10.60;56.90;;;;;;5052556;28;20029;-69
2021/04/15 16:41:10;;;;;;;5.93;0.80;;;10.60;56.50;;;;;;5052056;28;20024;-68
2021/04/15 16:43:37;;;;;;;2.10;0.90;;;10.60;56.60;;;;;;5052335;28;20483;-69
2021/04/15 16:46:04;;;;;;;5.18;0.90;;;10.60;56.80;;;;;;5052046;28;20024;-69
2021/04/15 16:48:30;;;;;;;2.15;0.98;;;10.60;57.10;;;;;;5052152;28;20025;-70
2021/04/15 16:50:56;;;;;;;4.32;1.08;;;10.60;56.80;;;;;;5051901;28;20032;-70
2021/04/15 16:53:22;;;;;;;3.65;0.80;;;10.60;56.90;;;;;;5052340;28;20510;-70
2021/04/15 16:55:48;;;;;;;1.60;0.80;;;10.60;56.70;;;;;;5051877;28;20058;-72
2021/04/15 16:58:18;;;;;;;4.63;1.00;;;10.60;56.70;;;;;;5051744;28;20052;-70
2021/04/15 17:00:47;;;;;;;5.60;1.08;;;10.50;57.00;;;;;;5051912;28;20393;-70
2021/04/15 17:03:14;;;;;;;5.78;0.90;;;10.50;56.80;;;;;;5051686;28;20159;-69
2021/04/15 17:05:41;;;;;;;8.48;1.10;;;10.50;56.90;;;;;;5052026;28;20389;-69
2021/04/15 17:08:09;;;;;;;9.32;4.47;;;10.50;57.10;;;;;;5051944;28;20025;-70
2021/04/15 17:10:40;;;;;;;20.88;6.03;;;10.50;57.10;;;;;;5051710;28;20484;-71
2021/04/15 17:13:06;;;;;;;;;;;10.50;57.40;;;;;;5052845;28;20078;-71
2021/04/15 17:15:32;;;;;;;42.05;15.95;;;10.50;57.40;;;;;;5055502;28;19920;-70
2021/04/15 17:17:57;;;;;;;44.60;14.32;;;10.50;57.70;;;;;;5055737;28;20099;-71
2021/04/15 17:20:25;;;;;;;22.38;5.45;;;10.40;57.60;;;;;;5055785;28;20571;-70
2021/04/15 17:22:52;;;;;;;11.48;2.67;;;10.40;57.90;;;;;;5055746;28;20143;-71
2021/04/15 17:25:20;;;;;;;21.88;2.08;;;10.40;58.00;;;;;;5055745;28;20032;-70
2021/04/15 17:27:46;;;;;;;11.80;1.30;;;10.40;58.10;;;;;;5055542;28;20104;-70
2021/04/15 17:30:13;;;;;;;11.48;1.38;;;10.30;58.10;;;;;;5055715;28;20480;-71
2021/04/15 17:32:39;;;;;;;9.25;1.02;;;10.30;58.30;;;;;;5055554;28;20033;-70
2021/04/15 17:35:09;;;;;;;13.32;1.30;;;10.30;58.50;;;;;;5055265;28;20494;-71
2021/04/15 17:37:35;;;;;;;22.40;1.73;;;10.30;58.80;;;;;;5055758;28;20029;-71
2021/04/15 17:40:00;;;;;;;15.75;1.52;;;10.20;58.70;;;;;;5055547;28;20388;-76
2021/04/15 17:42:26;;;;;;;25.02;1.40;;;10.20;58.90;;;;;;5055746;28;20358;-71
2021/04/15 17:44:52;;;;;;;12.70;1.20;;;10.20;59.10;;;;;;5055266;28;20493;-71
2021/04/15 17:47:18;;;;;;;6.13;1.10;;;10.10;59.30;;;;;;5055140;28;20056;-71
2021/04/15 17:49:45;;;;;;;11.80;1.45;;;10.10;59.50;;;;;;5055350;28;20596;-71
2021/04/15 17:52:11;;;;;;;13.45;1.15;;;10.10;59.80;;;;;;5055095;28;20488;-70
2021/04/15 17:54:37;;;;;;;21.60;1.38;;;10.00;60.00;;;;;;5055120;28;20036;-71
2021/04/15 17:57:04;;;;;;;10.30;0.88;;;9.90;60.10;;;;;;5054987;28;20104;-70
2021/04/15 17:59:31;;;;;;;19.50;1.92;;;9.80;60.70;;;;;;5054958;28;20041;-70
2021/04/15 18:02:01;;;;;;;12.35;1.20;;;9.80;61.10;;;;;;5054673;28;20021;-69
2021/04/15 18:04:27;;;;;;;8.75;1.08;;;9.70;61.30;;;;;;5054999;28;20017;-68